sensor_id;sensor_type;location;lat;lon;timestamp;temperature;humidity
10468;DHT22;5281;48.878;9.394;2023-09-19T00:02:04;19.80;99.90
10468;DHT22;5281;48.878;9.394;2023-09-19T00:04:35;19.80;99.90
10468;DHT22;5281;48.878;9.394;2023-09-19T00:07:05;19.80;99.90
10468;DHT22;5281;48.878;9.394;2023-09-19T00:09:31;19.90;99.90
10468;DHT22;5281;48.878;9.394;2023-09-19T00:12:03;19.90;99.90
10468;DHT22;5281;48.878;9.394;2023-09-19T00:14:30;19.90;99.90
10468;DHT22;5281;48.878;9.394;2023-09-19T00:16:59;19.90;99.90
10468;DHT22;5281;48.878;9.394;2023-09-19T00:19:26;19.90;99.90
10468;DHT22;5281;48.878;9.394;2023-09-19T00:21:55;19.80;99.90
10468;DHT22;5281;48.878;9.394;2023-09-19T00:24:22;19.80;99.90
10468;DHT22;5281;48.878;9.394;2023-09-19T00:26:49;19.70;99.90
10468;DHT22;5281;48.878;9.394;2023-09-19T00:29:15;19.70;99.90
10468;DHT22;5281;48.878;9.394;2023-09-19T00:31:43;19.60;99.90
10468;DHT22;5281;48.878;9.394;2023-09-19T00:34:10;19.60;99.90
10468;DHT22;5281;48.878;9.394;2023-09-19T00:36:36;19.60;99.90
10468;DHT22;5281;48.878;9.394;2023-09-19T00:39:06;19.60;99.90
10468;DHT22;5281;48.878;9.394;2023-09-19T00:41:34;19.60;99.90
10468;DHT22;5281;48.878;9.394;2023-09-19T00:44:02;19.60;99.90
10468;DHT22;5281;48.878;9.394;2023-09-19T00:46:30;19.50;99.90
10468;DHT22;5281;48.878;9.394;2023-09-19T00:48:58;19.40;99.90
10468;DHT22;5281;48.878;9.394;2023-09-19T00:51:25;19.40;99.90
10468;DHT22;5281;48.878;9.394;2023-09-19T00:53:53;19.40;99.90
10468;DHT22;5281;48.878;9.394;2023-09-19T00:56:21;19.30;99.90
10468;DHT22;5281;48.878;9.394;2023-09-19T00:58:48;19.20;99.90
10468;DHT22;5281;48.878;9.394;2023-09-19T01:01:15;19.10;99.90
10468;DHT22;5281;48.878;9.394;2023-09-19T01:03:42;19.10;99.90
10468;DHT22;5281;48.878;9.394;2023-09-19T01:06:10;19.20;99.90
10468;DHT22;5281;48.878;9.394;2023-09-19T01:08:37;19.10;99.90
10468;DHT22;5281;48.878;9.394;2023-09-19T01:11:11;19.10;99.90
10468;DHT22;5281;48.878;9.394;2023-09-19T01:13:47;19.20;99.90
10468;DHT22;5281;48.878;9.394;2023-09-19T01:16:21;19.20;99.90
10468;DHT22;5281;48.878;9.394;2023-09-19T01:19:06;19.30;99.90
10468;DHT22;5281;48.878;9.394;2023-09-19T01:21:41;19.30;99.90
10468;DHT22;5281;48.878;9.394;2023-09-19T01:24:22;19.30;99.90
10468;DHT22;5281;48.878;9.394;2023-09-19T01:27:06;19.20;99.90
10468;DHT22;5281;48.878;9.394;2023-09-19T01:29:44;19.30;99.90
10468;DHT22;5281;48.878;9.394;2023-09-19T01:32:16;19.30;99.90
10468;DHT22;5281;48.878;9.394;2023-09-19T01:34:47;19.30;99.90
10468;DHT22;5281;48.878;9.394;2023-09-19T01:37:15;19.30;99.90
10468;DHT22;5281;48.878;9.394;2023-09-19T01:39:47;19.30;99.90
10468;DHT22;5281;48.878;9.394;2023-09-19T01:42:23;19.30;99.90
10468;DHT22;5281;48.878;9.394;2023-09-19T01:44:57;19.30;99.90
10468;DHT22;5281;48.878;9.394;2023-09-19T01:47:32;19.30;99.90
10468;DHT22;5281;48.878;9.394;2023-09-19T01:50:07;19.30;99.90
10468;DHT22;5281;48.878;9.394;2023-09-19T01:52:42;19.30;99.90
10468;DHT22;5281;48.878;9.394;2023-09-19T01:55:11;19.30;99.90
10468;DHT22;5281;48.878;9.394;2023-09-19T01:57:49;19.30;99.90
10468;DHT22;5281;48.878;9.394;2023-09-19T02:00:20;19.30;99.90
10468;DHT22;5281;48.878;9.394;2023-09-19T02:02:49;19.30;99.90
10468;DHT22;5281;48.878;9.394;2023-09-19T02:05:22;19.30;99.90
10468;DHT22;5281;48.878;9.394;2023-09-19T02:07:50;19.30;99.90
10468;DHT22;5281;48.878;9.394;2023-09-19T02:10:17;19.20;99.90
10468;DHT22;5281;48.878;9.394;2023-09-19T02:12:43;19.30;99.90
10468;DHT22;5281;48.878;9.394;2023-09-19T02:15:10;19.20;99.90
10468;DHT22;5281;48.878;9.394;2023-09-19T02:17:37;19.20;99.90
10468;DHT22;5281;48.878;9.394;2023-09-19T02:20:05;19.30;99.90
10468;DHT22;5281;48.878;9.394;2023-09-19T02:22:40;19.30;99.90
10468;DHT22;5281;48.878;9.394;2023-09-19T02:25:07;19.30;99.90
10468;DHT22;5281;48.878;9.394;2023-09-19T02:27:34;19.20;99.90
10468;DHT22;5281;48.878;9.394;2023-09-19T02:30:01;19.20;99.90
10468;DHT22;5281;48.878;9.394;2023-09-19T02:32:29;19.10;99.90
10468;DHT22;5281;48.878;9.394;2023-09-19T02:34:57;19.10;99.90
10468;DHT22;5281;48.878;9.394;2023-09-19T02:37:25;19.00;99.90
10468;DHT22;5281;48.878;9.394;2023-09-19T02:39:52;18.90;99.90
10468;DHT22;5281;48.878;9.394;2023-09-19T02:42:19;18.90;99.90
10468;DHT22;5281;48.878;9.394;2023-09-19T02:44:45;18.70;99.90
10468;DHT22;5281;48.878;9.394;2023-09-19T02:47:13;18.70;99.90
10468;DHT22;5281;48.878;9.394;2023-09-19T02:49:42;18.60;99.90
10468;DHT22;5281;48.878;9.394;2023-09-19T02:52:09;18.60;99.90
10468;DHT22;5281;48.878;9.394;2023-09-19T02:54:38;18.50;99.90
10468;DHT22;5281;48.878;9.394;2023-09-19T02:57:04;18.50;99.90
10468;DHT22;5281;48.878;9.394;2023-09-19T02:59:33;18.50;99.90
10468;DHT22;5281;48.878;9.394;2023-09-19T03:02:02;18.50;99.90
10468;DHT22;5281;48.878;9.394;2023-09-19T03:04:30;18.40;99.90
10468;DHT22;5281;48.878;9.394;2023-09-19T03:06:58;18.30;99.90
10468;DHT22;5281;48.878;9.394;2023-09-19T03:09:26;18.40;99.90
10468;DHT22;5281;48.878;9.394;2023-09-19T03:11:54;18.40;99.90
10468;DHT22;5281;48.878;9.394;2023-09-19T03:14:21;18.50;99.90
10468;DHT22;5281;48.878;9.394;2023-09-19T03:16:49;18.50;99.90
10468;DHT22;5281;48.878;9.394;2023-09-19T03:19:17;18.70;99.90
10468;DHT22;5281;48.878;9.394;2023-09-19T03:21:46;18.60;99.90
10468;DHT22;5281;48.878;9.394;2023-09-19T03:24:14;18.90;99.90
10468;DHT22;5281;48.878;9.394;2023-09-19T03:26:41;18.90;99.90
10468;DHT22;5281;48.878;9.394;2023-09-19T03:29:09;19.00;99.90
10468;DHT22;5281;48.878;9.394;2023-09-19T03:31:36;19.00;99.90
10468;DHT22;5281;48.878;9.394;2023-09-19T03:34:03;19.10;99.90
10468;DHT22;5281;48.878;9.394;2023-09-19T03:36:30;19.20;99.90
10468;DHT22;5281;48.878;9.394;2023-09-19T03:38:58;19.20;99.90
10468;DHT22;5281;48.878;9.394;2023-09-19T03:41:25;19.20;99.90
10468;DHT22;5281;48.878;9.394;2023-09-19T03:43:52;19.30;99.90
10468;DHT22;5281;48.878;9.394;2023-09-19T03:46:20;19.30;99.90
10468;DHT22;5281;48.878;9.394;2023-09-19T03:48:46;19.30;99.90
10468;DHT22;5281;48.878;9.394;2023-09-19T03:51:13;19.30;99.90
10468;DHT22;5281;48.878;9.394;2023-09-19T03:53:40;19.30;99.90
10468;DHT22;5281;48.878;9.394;2023-09-19T03:56:07;19.30;99.90
10468;DHT22;5281;48.878;9.394;2023-09-19T03:58:33;19.20;99.90
10468;DHT22;5281;48.878;9.394;2023-09-19T04:01:04;19.30;99.90
10468;DHT22;5281;48.878;9.394;2023-09-19T04:03:33;19.30;99.90
10468;DHT22;5281;48.878;9.394;2023-09-19T04:06:11;19.30;99.90
10468;DHT22;5281;48.878;9.394;2023-09-19T04:08:38;19.30;99.90
10468;DHT22;5281;48.878;9.394;2023-09-19T04:11:05;19.30;99.90
10468;DHT22;5281;48.878;9.394;2023-09-19T04:13:31;19.30;99.90
10468;DHT22;5281;48.878;9.394;2023-09-19T04:15:58;19.30;99.90
10468;DHT22;5281;48.878;9.394;2023-09-19T04:18:25;19.10;99.90
10468;DHT22;5281;48.878;9.394;2023-09-19T04:20:53;19.00;99.90
10468;DHT22;5281;48.878;9.394;2023-09-19T04:23:21;18.90;99.90
10468;DHT22;5281;48.878;9.394;2023-09-19T04:25:48;18.90;99.90
10468;DHT22;5281;48.878;9.394;2023-09-19T04:28:15;18.90;99.90
10468;DHT22;5281;48.878;9.394;2023-09-19T04:30:42;18.90;99.90
10468;DHT22;5281;48.878;9.394;2023-09-19T04:33:09;18.80;99.90
10468;DHT22;5281;48.878;9.394;2023-09-19T04:35:36;18.80;99.90
10468;DHT22;5281;48.878;9.394;2023-09-19T04:38:05;18.80;99.90
10468;DHT22;5281;48.878;9.394;2023-09-19T04:40:32;18.90;99.90
10468;DHT22;5281;48.878;9.394;2023-09-19T04:42:59;18.90;99.90
10468;DHT22;5281;48.878;9.394;2023-09-19T04:45:27;18.90;99.90
10468;DHT22;5281;48.878;9.394;2023-09-19T04:47:54;18.90;99.90
10468;DHT22;5281;48.878;9.394;2023-09-19T04:50:21;18.90;99.90
10468;DHT22;5281;48.878;9.394;2023-09-19T04:52:50;18.90;99.90
10468;DHT22;5281;48.878;9.394;2023-09-19T04:55:18;18.80;99.90
10468;DHT22;5281;48.878;9.394;2023-09-19T04:57:46;18.90;99.90
10468;DHT22;5281;48.878;9.394;2023-09-19T05:00:14;18.80;99.90
10468;DHT22;5281;48.878;9.394;2023-09-19T05:02:42;18.60;99.90
10468;DHT22;5281;48.878;9.394;2023-09-19T05:05:10;18.60;99.90
10468;DHT22;5281;48.878;9.394;2023-09-19T05:07:38;18.60;99.90
10468;DHT22;5281;48.878;9.394;2023-09-19T05:10:07;18.70;99.90
10468;DHT22;5281;48.878;9.394;2023-09-19T05:12:35;18.80;99.90
10468;DHT22;5281;48.878;9.394;2023-09-19T05:15:02;19.00;99.90
10468;DHT22;5281;48.878;9.394;2023-09-19T05:17:30;18.90;99.90
10468;DHT22;5281;48.878;9.394;2023-09-19T05:19:58;19.00;99.90
10468;DHT22;5281;48.878;9.394;2023-09-19T05:22:27;19.00;99.90
10468;DHT22;5281;48.878;9.394;2023-09-19T05:24:54;18.90;99.90
10468;DHT22;5281;48.878;9.394;2023-09-19T05:27:21;18.80;99.90
10468;DHT22;5281;48.878;9.394;2023-09-19T05:29:49;18.80;99.90
10468;DHT22;5281;48.878;9.394;2023-09-19T05:32:17;18.90;99.90
10468;DHT22;5281;48.878;9.394;2023-09-19T05:34:45;18.90;99.90
10468;DHT22;5281;48.878;9.394;2023-09-19T05:37:13;19.00;99.90
10468;DHT22;5281;48.878;9.394;2023-09-19T05:39:41;19.00;99.90
10468;DHT22;5281;48.878;9.394;2023-09-19T05:42:07;19.10;99.90
10468;DHT22;5281;48.878;9.394;2023-09-19T05:44:35;19.10;99.90
10468;DHT22;5281;48.878;9.394;2023-09-19T05:47:03;19.00;99.90
10468;DHT22;5281;48.878;9.394;2023-09-19T05:49:30;19.10;99.90
10468;DHT22;5281;48.878;9.394;2023-09-19T05:51:57;19.10;99.90
10468;DHT22;5281;48.878;9.394;2023-09-19T05:54:24;18.90;99.90
10468;DHT22;5281;48.878;9.394;2023-09-19T05:56:51;18.80;99.90
10468;DHT22;5281;48.878;9.394;2023-09-19T05:59:18;18.60;99.90
10468;DHT22;5281;48.878;9.394;2023-09-19T06:01:45;18.60;99.90
10468;DHT22;5281;48.878;9.394;2023-09-19T06:04:13;18.40;99.90
10468;DHT22;5281;48.878;9.394;2023-09-19T06:06:40;18.40;99.90
10468;DHT22;5281;48.878;9.394;2023-09-19T06:09:07;18.40;99.90
10468;DHT22;5281;48.878;9.394;2023-09-19T06:11:34;18.50;99.90
10468;DHT22;5281;48.878;9.394;2023-09-19T06:14:01;18.60;99.90
10468;DHT22;5281;48.878;9.394;2023-09-19T06:16:28;18.60;99.90
10468;DHT22;5281;48.878;9.394;2023-09-19T06:18:55;18.70;99.90
10468;DHT22;5281;48.878;9.394;2023-09-19T06:21:23;18.80;99.90
10468;DHT22;5281;48.878;9.394;2023-09-19T06:23:50;18.80;99.90
10468;DHT22;5281;48.878;9.394;2023-09-19T06:26:17;18.80;99.90
10468;DHT22;5281;48.878;9.394;2023-09-19T06:28:44;18.70;99.90
10468;DHT22;5281;48.878;9.394;2023-09-19T06:31:11;18.60;99.90
10468;DHT22;5281;48.878;9.394;2023-09-19T06:33:38;18.40;99.90
10468;DHT22;5281;48.878;9.394;2023-09-19T06:36:06;18.40;99.90
10468;DHT22;5281;48.878;9.394;2023-09-19T06:38:34;18.30;99.90
10468;DHT22;5281;48.878;9.394;2023-09-19T06:41:01;18.30;99.90
10468;DHT22;5281;48.878;9.394;2023-09-19T06:43:30;18.40;99.90
10468;DHT22;5281;48.878;9.394;2023-09-19T06:45:58;18.40;99.90
10468;DHT22;5281;48.878;9.394;2023-09-19T06:48:25;18.40;99.90
10468;DHT22;5281;48.878;9.394;2023-09-19T06:50:53;18.40;99.90
10468;DHT22;5281;48.878;9.394;2023-09-19T06:53:20;18.50;99.90
10468;DHT22;5281;48.878;9.394;2023-09-19T06:55:50;18.70;99.90
10468;DHT22;5281;48.878;9.394;2023-09-19T06:58:17;18.90;99.90
10468;DHT22;5281;48.878;9.394;2023-09-19T07:00:44;19.10;99.90
10468;DHT22;5281;48.878;9.394;2023-09-19T07:03:13;19.30;99.90
10468;DHT22;5281;48.878;9.394;2023-09-19T07:05:42;19.50;99.90
10468;DHT22;5281;48.878;9.394;2023-09-19T07:08:10;19.80;99.90
10468;DHT22;5281;48.878;9.394;2023-09-19T07:10:38;19.90;99.90
10468;DHT22;5281;48.878;9.394;2023-09-19T07:13:08;20.10;99.90
10468;DHT22;5281;48.878;9.394;2023-09-19T07:15:37;20.40;99.90
10468;DHT22;5281;48.878;9.394;2023-09-19T07:18:07;20.70;99.90
10468;DHT22;5281;48.878;9.394;2023-09-19T07:20:36;21.40;99.90
10468;DHT22;5281;48.878;9.394;2023-09-19T07:23:03;22.30;99.90
10468;DHT22;5281;48.878;9.394;2023-09-19T07:25:31;22.90;99.90
10468;DHT22;5281;48.878;9.394;2023-09-19T07:27:58;23.70;99.90
10468;DHT22;5281;48.878;9.394;2023-09-19T07:30:27;24.30;99.90
10468;DHT22;5281;48.878;9.394;2023-09-19T07:32:54;24.60;99.90
10468;DHT22;5281;48.878;9.394;2023-09-19T07:35:21;24.60;99.90
10468;DHT22;5281;48.878;9.394;2023-09-19T07:37:48;24.50;99.90
10468;DHT22;5281;48.878;9.394;2023-09-19T07:40:17;24.20;99.90
10468;DHT22;5281;48.878;9.394;2023-09-19T07:42:44;24.00;99.90
10468;DHT22;5281;48.878;9.394;2023-09-19T07:45:12;23.80;99.90
10468;DHT22;5281;48.878;9.394;2023-09-19T07:47:44;23.50;99.90
10468;DHT22;5281;48.878;9.394;2023-09-19T07:50:11;23.50;99.90
10468;DHT22;5281;48.878;9.394;2023-09-19T07:52:37;23.40;99.90
10468;DHT22;5281;48.878;9.394;2023-09-19T07:55:05;23.40;99.90
10468;DHT22;5281;48.878;9.394;2023-09-19T07:57:34;23.30;99.90
10468;DHT22;5281;48.878;9.394;2023-09-19T08:00:03;23.20;99.90
10468;DHT22;5281;48.878;9.394;2023-09-19T08:02:30;23.00;99.90
10468;DHT22;5281;48.878;9.394;2023-09-19T08:05:01;22.70;99.90
10468;DHT22;5281;48.878;9.394;2023-09-19T08:07:31;22.50;99.90
10468;DHT22;5281;48.878;9.394;2023-09-19T08:09:58;22.50;99.90
10468;DHT22;5281;48.878;9.394;2023-09-19T08:12:25;22.50;99.90
10468;DHT22;5281;48.878;9.394;2023-09-19T08:14:52;22.40;99.90
10468;DHT22;5281;48.878;9.394;2023-09-19T08:17:19;22.30;99.90
10468;DHT22;5281;48.878;9.394;2023-09-19T08:19:45;22.10;99.90
10468;DHT22;5281;48.878;9.394;2023-09-19T08:22:13;21.90;99.90
10468;DHT22;5281;48.878;9.394;2023-09-19T08:24:42;21.80;99.90
10468;DHT22;5281;48.878;9.394;2023-09-19T08:27:10;21.80;99.90
10468;DHT22;5281;48.878;9.394;2023-09-19T08:29:38;21.80;99.90
10468;DHT22;5281;48.878;9.394;2023-09-19T08:32:04;21.80;99.90
10468;DHT22;5281;48.878;9.394;2023-09-19T08:34:31;21.70;99.90
10468;DHT22;5281;48.878;9.394;2023-09-19T08:36:59;21.70;99.90
10468;DHT22;5281;48.878;9.394;2023-09-19T08:39:27;21.70;99.90
10468;DHT22;5281;48.878;9.394;2023-09-19T08:41:57;21.60;99.90
10468;DHT22;5281;48.878;9.394;2023-09-19T08:44:25;21.60;99.90
10468;DHT22;5281;48.878;9.394;2023-09-19T08:46:55;21.60;99.90
10468;DHT22;5281;48.878;9.394;2023-09-19T08:49:27;21.70;99.90
10468;DHT22;5281;48.878;9.394;2023-09-19T08:52:01;21.70;99.90
10468;DHT22;5281;48.878;9.394;2023-09-19T08:54:35;21.80;99.90
10468;DHT22;5281;48.878;9.394;2023-09-19T08:57:07;22.00;99.90
10468;DHT22;5281;48.878;9.394;2023-09-19T08:59:37;22.10;99.90
10468;DHT22;5281;48.878;9.394;2023-09-19T09:02:09;22.20;99.90
10468;DHT22;5281;48.878;9.394;2023-09-19T09:04:39;22.20;99.90
10468;DHT22;5281;48.878;9.394;2023-09-19T09:07:06;22.20;99.90
10468;DHT22;5281;48.878;9.394;2023-09-19T09:09:38;22.40;99.90
10468;DHT22;5281;48.878;9.394;2023-09-19T09:12:08;22.60;99.90
10468;DHT22;5281;48.878;9.394;2023-09-19T09:14:35;22.80;99.90
10468;DHT22;5281;48.878;9.394;2023-09-19T09:17:03;23.00;99.90
10468;DHT22;5281;48.878;9.394;2023-09-19T09:19:30;23.20;99.90
10468;DHT22;5281;48.878;9.394;2023-09-19T09:22:06;23.30;99.90
10468;DHT22;5281;48.878;9.394;2023-09-19T09:24:33;23.60;99.90
10468;DHT22;5281;48.878;9.394;2023-09-19T09:27:04;23.80;99.90
10468;DHT22;5281;48.878;9.394;2023-09-19T09:29:43;23.70;99.90
10468;DHT22;5281;48.878;9.394;2023-09-19T09:32:22;23.60;99.90
10468;DHT22;5281;48.878;9.394;2023-09-19T09:34:51;23.60;99.90
10468;DHT22;5281;48.878;9.394;2023-09-19T09:37:19;23.80;99.90
10468;DHT22;5281;48.878;9.394;2023-09-19T09:39:50;24.00;99.90
10468;DHT22;5281;48.878;9.394;2023-09-19T09:42:33;24.00;99.90
10468;DHT22;5281;48.878;9.394;2023-09-19T09:45:15;23.80;99.90
10468;DHT22;5281;48.878;9.394;2023-09-19T09:47:43;23.70;99.90
10468;DHT22;5281;48.878;9.394;2023-09-19T09:50:27;23.50;99.90
10468;DHT22;5281;48.878;9.394;2023-09-19T09:53:22;23.40;99.90
10468;DHT22;5281;48.878;9.394;2023-09-19T09:55:57;23.30;99.90
10468;DHT22;5281;48.878;9.394;2023-09-19T09:58:26;23.30;99.90
10468;DHT22;5281;48.878;9.394;2023-09-19T10:00:55;23.30;99.90
10468;DHT22;5281;48.878;9.394;2023-09-19T10:03:31;23.30;99.90
10468;DHT22;5281;48.878;9.394;2023-09-19T10:05:59;23.40;99.90
10468;DHT22;5281;48.878;9.394;2023-09-19T10:08:27;23.60;99.90
10468;DHT22;5281;48.878;9.394;2023-09-19T10:10:57;23.70;99.90
10468;DHT22;5281;48.878;9.394;2023-09-19T10:13:34;23.70;99.90
10468;DHT22;5281;48.878;9.394;2023-09-19T10:16:06;23.70;99.90
10468;DHT22;5281;48.878;9.394;2023-09-19T10:18:36;23.80;99.90
10468;DHT22;5281;48.878;9.394;2023-09-19T10:21:04;23.80;99.90
10468;DHT22;5281;48.878;9.394;2023-09-19T10:23:33;23.90;99.90
10468;DHT22;5281;48.878;9.394;2023-09-19T10:26:01;24.00;99.90
10468;DHT22;5281;48.878;9.394;2023-09-19T10:28:28;24.20;99.90
10468;DHT22;5281;48.878;9.394;2023-09-19T10:30:57;24.40;99.90
10468;DHT22;5281;48.878;9.394;2023-09-19T10:33:33;24.40;99.90
10468;DHT22;5281;48.878;9.394;2023-09-19T10:36:04;24.50;99.90
10468;DHT22;5281;48.878;9.394;2023-09-19T10:38:33;24.40;99.90
10468;DHT22;5281;48.878;9.394;2023-09-19T10:41:01;24.20;99.90
10468;DHT22;5281;48.878;9.394;2023-09-19T10:43:30;24.30;99.90
10468;DHT22;5281;48.878;9.394;2023-09-19T10:46:01;24.30;99.90
10468;DHT22;5281;48.878;9.394;2023-09-19T10:48:29;24.40;99.90
10468;DHT22;5281;48.878;9.394;2023-09-19T10:51:01;24.50;99.90
10468;DHT22;5281;48.878;9.394;2023-09-19T10:53:41;24.70;99.90
10468;DHT22;5281;48.878;9.394;2023-09-19T10:56:09;24.70;99.90
10468;DHT22;5281;48.878;9.394;2023-09-19T10:58:43;24.70;99.90
10468;DHT22;5281;48.878;9.394;2023-09-19T11:01:12;24.80;99.90
10468;DHT22;5281;48.878;9.394;2023-09-19T11:03:41;24.90;99.90
10468;DHT22;5281;48.878;9.394;2023-09-19T11:06:11;24.90;99.90
10468;DHT22;5281;48.878;9.394;2023-09-19T11:09:01;25.00;99.90
10468;DHT22;5281;48.878;9.394;2023-09-19T11:11:48;24.80;99.90
10468;DHT22;5281;48.878;9.394;2023-09-19T11:14:46;24.80;99.90
10468;DHT22;5281;48.878;9.394;2023-09-19T11:17:33;24.70;99.90
10468;DHT22;5281;48.878;9.394;2023-09-19T11:20:20;24.50;99.90
10468;DHT22;5281;48.878;9.394;2023-09-19T11:23:20;24.30;99.90
10468;DHT22;5281;48.878;9.394;2023-09-19T11:25:53;24.30;99.90
10468;DHT22;5281;48.878;9.394;2023-09-19T11:28:36;24.50;99.90
10468;DHT22;5281;48.878;9.394;2023-09-19T11:34:46;25.00;99.90
10468;DHT22;5281;48.878;9.394;2023-09-19T11:40:45;25.50;99.90
10468;DHT22;5281;48.878;9.394;2023-09-19T11:43:32;25.60;99.90
10468;DHT22;5281;48.878;9.394;2023-09-19T11:46:02;25.40;99.90
10468;DHT22;5281;48.878;9.394;2023-09-19T11:48:32;25.40;99.90
10468;DHT22;5281;48.878;9.394;2023-09-19T11:51:03;25.60;99.90
10468;DHT22;5281;48.878;9.394;2023-09-19T11:53:40;25.80;99.50
10468;DHT22;5281;48.878;9.394;2023-09-19T11:56:09;25.80;99.90
10468;DHT22;5281;48.878;9.394;2023-09-19T11:58:37;25.60;99.90
10468;DHT22;5281;48.878;9.394;2023-09-19T12:01:05;25.30;99.90
10468;DHT22;5281;48.878;9.394;2023-09-19T12:03:40;25.20;99.90
10468;DHT22;5281;48.878;9.394;2023-09-19T12:06:12;25.10;99.90
10468;DHT22;5281;48.878;9.394;2023-09-19T12:08:40;24.90;99.90
10468;DHT22;5281;48.878;9.394;2023-09-19T12:11:13;24.80;99.90
10468;DHT22;5281;48.878;9.394;2023-09-19T12:13:44;24.80;99.90
10468;DHT22;5281;48.878;9.394;2023-09-19T12:16:13;25.00;99.90
10468;DHT22;5281;48.878;9.394;2023-09-19T12:18:41;25.40;99.90
10468;DHT22;5281;48.878;9.394;2023-09-19T12:21:23;25.70;99.90
10468;DHT22;5281;48.878;9.394;2023-09-19T12:24:03;25.90;99.90
10468;DHT22;5281;48.878;9.394;2023-09-19T12:26:38;25.90;99.90
10468;DHT22;5281;48.878;9.394;2023-09-19T12:29:11;25.80;99.90
10468;DHT22;5281;48.878;9.394;2023-09-19T12:31:53;25.80;99.90
10468;DHT22;5281;48.878;9.394;2023-09-19T12:34:23;26.00;99.90
10468;DHT22;5281;48.878;9.394;2023-09-19T12:37:09;26.10;99.90
10468;DHT22;5281;48.878;9.394;2023-09-19T12:39:43;26.20;99.90
10468;DHT22;5281;48.878;9.394;2023-09-19T12:42:14;26.20;99.90
10468;DHT22;5281;48.878;9.394;2023-09-19T12:44:43;26.10;99.90
10468;DHT22;5281;48.878;9.394;2023-09-19T12:47:11;26.20;99.90
10468;DHT22;5281;48.878;9.394;2023-09-19T12:50:06;26.40;99.90
10468;DHT22;5281;48.878;9.394;2023-09-19T12:52:41;26.80;99.40
10468;DHT22;5281;48.878;9.394;2023-09-19T12:55:18;27.00;98.70
10468;DHT22;5281;48.878;9.394;2023-09-19T12:57:58;26.90;98.40
10468;DHT22;5281;48.878;9.394;2023-09-19T13:00:32;26.70;98.40
10468;DHT22;5281;48.878;9.394;2023-09-19T13:03:16;26.50;98.00
10468;DHT22;5281;48.878;9.394;2023-09-19T13:05:49;26.30;98.40
10468;DHT22;5281;48.878;9.394;2023-09-19T13:08:24;26.20;98.30
10468;DHT22;5281;48.878;9.394;2023-09-19T13:11:11;26.10;98.40
10468;DHT22;5281;48.878;9.394;2023-09-19T13:13:41;25.90;98.80
10468;DHT22;5281;48.878;9.394;2023-09-19T13:16:09;25.70;98.70
10468;DHT22;5281;48.878;9.394;2023-09-19T13:18:47;25.70;98.80
10468;DHT22;5281;48.878;9.394;2023-09-19T13:21:17;25.70;99.00
10468;DHT22;5281;48.878;9.394;2023-09-19T13:23:53;25.60;98.40
10468;DHT22;5281;48.878;9.394;2023-09-19T13:26:22;25.50;98.20
10468;DHT22;5281;48.878;9.394;2023-09-19T13:28:48;25.40;98.10
10468;DHT22;5281;48.878;9.394;2023-09-19T13:31:15;25.20;98.70
10468;DHT22;5281;48.878;9.394;2023-09-19T13:33:44;25.20;98.80
10468;DHT22;5281;48.878;9.394;2023-09-19T13:36:11;25.10;98.80
10468;DHT22;5281;48.878;9.394;2023-09-19T13:38:39;25.00;98.70
10468;DHT22;5281;48.878;9.394;2023-09-19T13:41:07;25.00;98.60
10468;DHT22;5281;48.878;9.394;2023-09-19T13:43:33;25.00;98.50
10468;DHT22;5281;48.878;9.394;2023-09-19T13:46:00;25.00;98.60
10468;DHT22;5281;48.878;9.394;2023-09-19T13:48:28;25.10;98.50
10468;DHT22;5281;48.878;9.394;2023-09-19T13:50:55;25.30;98.10
10468;DHT22;5281;48.878;9.394;2023-09-19T13:53:22;25.40;97.90
10468;DHT22;5281;48.878;9.394;2023-09-19T13:55:49;25.40;98.10
10468;DHT22;5281;48.878;9.394;2023-09-19T13:58:17;25.40;98.60
10468;DHT22;5281;48.878;9.394;2023-09-19T14:00:43;25.50;98.20
10468;DHT22;5281;48.878;9.394;2023-09-19T14:03:10;25.60;98.80
10468;DHT22;5281;48.878;9.394;2023-09-19T14:05:37;25.80;97.50
10468;DHT22;5281;48.878;9.394;2023-09-19T14:08:05;25.80;98.20
10468;DHT22;5281;48.878;9.394;2023-09-19T14:10:32;25.70;96.90
10468;DHT22;5281;48.878;9.394;2023-09-19T14:13:00;25.50;97.80
10468;DHT22;5281;48.878;9.394;2023-09-19T14:15:28;25.50;96.90
10468;DHT22;5281;48.878;9.394;2023-09-19T14:18:00;25.50;97.60
10468;DHT22;5281;48.878;9.394;2023-09-19T14:20:27;25.60;98.10
10468;DHT22;5281;48.878;9.394;2023-09-19T14:22:54;25.60;96.80
10468;DHT22;5281;48.878;9.394;2023-09-19T14:25:21;25.60;97.00
10468;DHT22;5281;48.878;9.394;2023-09-19T14:27:48;25.40;96.90
10468;DHT22;5281;48.878;9.394;2023-09-19T14:30:15;25.40;97.70
10468;DHT22;5281;48.878;9.394;2023-09-19T14:32:43;25.40;98.20
10468;DHT22;5281;48.878;9.394;2023-09-19T14:35:10;25.40;97.30
10468;DHT22;5281;48.878;9.394;2023-09-19T14:37:40;25.50;97.50
10468;DHT22;5281;48.878;9.394;2023-09-19T14:40:08;25.40;96.90
10468;DHT22;5281;48.878;9.394;2023-09-19T14:42:36;25.40;97.40
10468;DHT22;5281;48.878;9.394;2023-09-19T14:45:04;25.30;97.30
10468;DHT22;5281;48.878;9.394;2023-09-19T14:47:31;25.30;98.00
10468;DHT22;5281;48.878;9.394;2023-09-19T14:50:01;25.20;97.30
10468;DHT22;5281;48.878;9.394;2023-09-19T14:52:32;25.20;97.90
10468;DHT22;5281;48.878;9.394;2023-09-19T14:54:59;25.20;98.10
10468;DHT22;5281;48.878;9.394;2023-09-19T14:57:26;25.20;98.10
10468;DHT22;5281;48.878;9.394;2023-09-19T14:59:52;25.20;97.90
10468;DHT22;5281;48.878;9.394;2023-09-19T15:02:19;25.20;97.80
10468;DHT22;5281;48.878;9.394;2023-09-19T15:04:46;25.30;98.10
10468;DHT22;5281;48.878;9.394;2023-09-19T15:07:15;25.20;97.10
10468;DHT22;5281;48.878;9.394;2023-09-19T15:09:43;25.30;96.80
10468;DHT22;5281;48.878;9.394;2023-09-19T15:12:10;25.30;96.60
10468;DHT22;5281;48.878;9.394;2023-09-19T15:14:39;25.40;97.50
10468;DHT22;5281;48.878;9.394;2023-09-19T15:17:06;25.40;96.20
10468;DHT22;5281;48.878;9.394;2023-09-19T15:19:34;25.30;96.50
10468;DHT22;5281;48.878;9.394;2023-09-19T15:22:01;25.20;96.40
10468;DHT22;5281;48.878;9.394;2023-09-19T15:24:29;25.20;96.10
10468;DHT22;5281;48.878;9.394;2023-09-19T15:26:55;25.20;97.00
10468;DHT22;5281;48.878;9.394;2023-09-19T15:29:22;25.20;96.50
10468;DHT22;5281;48.878;9.394;2023-09-19T15:31:49;25.20;98.10
10468;DHT22;5281;48.878;9.394;2023-09-19T15:34:16;25.20;96.50
10468;DHT22;5281;48.878;9.394;2023-09-19T15:36:42;25.20;96.20
10468;DHT22;5281;48.878;9.394;2023-09-19T15:39:10;25.10;95.70
10468;DHT22;5281;48.878;9.394;2023-09-19T15:41:39;25.10;97.20
10468;DHT22;5281;48.878;9.394;2023-09-19T15:44:12;25.00;96.40
10468;DHT22;5281;48.878;9.394;2023-09-19T15:46:39;25.10;95.30
10468;DHT22;5281;48.878;9.394;2023-09-19T15:49:06;25.00;95.30
10468;DHT22;5281;48.878;9.394;2023-09-19T15:51:33;25.00;95.60
10468;DHT22;5281;48.878;9.394;2023-09-19T15:54:01;24.90;95.60
10468;DHT22;5281;48.878;9.394;2023-09-19T15:56:33;24.80;95.20
10468;DHT22;5281;48.878;9.394;2023-09-19T15:59:02;24.80;95.20
10468;DHT22;5281;48.878;9.394;2023-09-19T16:01:30;24.60;94.70
10468;DHT22;5281;48.878;9.394;2023-09-19T16:03:57;24.50;94.80
10468;DHT22;5281;48.878;9.394;2023-09-19T16:06:24;24.40;95.30
10468;DHT22;5281;48.878;9.394;2023-09-19T16:08:53;24.20;96.50